Time;durP1;ratioP1;P1;durP2;ratioP2;P2;SDS_P1;SDS_P2;PMS_P1;PMS_P2;Temp;Humidity;BMP_temperature;BMP_pressure;BME280_temperature;BME280_humidity;BME280_pressure;Samples;Min_cycle;Max_cycle;Signal;HPM_P1;HPM_P2
2023/08/02 00:00:08;;;;;;;2.90;1.00;;;18.70;99.90;;;;;;5027166;28;20607;-75
2023/08/02 00:02:40;;;;;;;7.27;1.87;;;18.60;99.90;;;;;;5028609;28;20213;-75
2023/08/02 00:05:06;;;;;;;4.13;1.00;;;18.60;99.90;;;;;;4998517;28;21189;-75
2023/08/02 00:07:32;;;;;;;3.93;1.03;;;18.60;99.90;;;;;;5032843;28;20173;-75
2023/08/02 00:09:58;;;;;;;5.83;1.10;;;18.60;99.90;;;;;;5048560;28;20588;-75
2023/08/02 00:12:23;;;;;;;3.50;1.00;;;18.60;99.90;;;;;;5031014;28;20224;-75
2023/08/02 00:14:49;;;;;;;2.07;0.90;;;18.60;99.90;;;;;;5047078;28;20161;-75
2023/08/02 00:17:15;;;;;;;3.77;1.20;;;18.70;99.90;;;;;;5035777;28;20662;-75
2023/08/02 00:19:40;;;;;;;2.90;0.90;;;18.70;99.90;;;;;;5031317;28;20526;-75
2023/08/02 00:22:06;;;;;;;4.07;1.00;;;18.70;99.90;;;;;;5032731;28;20174;-75
2023/08/02 00:24:32;;;;;;;4.83;0.73;;;18.70;99.90;;;;;;5030857;28;20209;-75
2023/08/02 00:26:57;;;;;;;2.63;0.80;;;18.70;99.90;;;;;;5031864;28;20181;-75
2023/08/02 00:29:23;;;;;;;2.63;0.90;;;18.70;99.90;;;;;;5030502;28;20247;-75
2023/08/02 00:31:49;;;;;;;2.23;0.80;;;18.70;99.90;;;;;;5014916;28;20521;-75
2023/08/02 00:34:15;;;;;;;3.20;0.83;;;18.70;99.90;;;;;;5030703;28;20200;-75
2023/08/02 00:36:40;;;;;;;2.90;1.10;;;18.80;99.90;;;;;;5031232;28;20691;-74
2023/08/02 00:39:07;;;;;;;3.10;1.00;;;18.80;99.90;;;;;;5031148;28;20622;-75
2023/08/02 00:41:32;;;;;;;2.17;0.87;;;18.80;99.90;;;;;;5030965;28;20712;-75
2023/08/02 00:43:58;;;;;;;3.50;0.80;;;18.80;99.90;;;;;;5031258;28;20627;-75
2023/08/02 00:46:24;;;;;;;2.53;0.93;;;18.90;99.90;;;;;;5030652;28;20585;-75
2023/08/02 00:48:50;;;;;;;3.60;0.90;;;18.90;99.90;;;;;;5031226;28;20517;-76
2023/08/02 00:51:16;;;;;;;3.80;1.10;;;18.90;99.90;;;;;;5031965;28;20192;-76
2023/08/02 00:53:43;;;;;;;2.33;0.90;;;18.90;99.90;;;;;;5034715;28;20211;-76
2023/08/02 00:56:10;;;;;;;3.27;0.90;;;18.90;99.90;;;;;;5030429;28;20623;-75
2023/08/02 00:58:35;;;;;;;3.13;1.03;;;18.90;99.90;;;;;;5030739;28;20929;-75
2023/08/02 01:01:07;;;;;;;4.40;1.07;;;18.90;99.90;;;;;;5013950;28;20687;-75
2023/08/02 01:03:37;;;;;;;2.43;0.70;;;18.90;99.90;;;;;;5030225;28;20740;-76
2023/08/02 01:06:16;;;;;;;2.37;0.80;;;19.00;99.90;;;;;;5047099;28;20606;-75
2023/08/02 01:08:46;;;;;;;2.73;0.70;;;18.90;99.90;;;;;;5031647;28;20583;-75
2023/08/02 01:11:22;;;;;;;2.30;0.80;;;18.90;99.90;;;;;;5030590;28;20603;-76
2023/08/02 01:13:50;;;;;;;1.67;0.80;;;18.90;99.90;;;;;;5041192;28;20675;-76
2023/08/02 01:16:17;;;;;;;4.70;1.20;;;19.00;99.90;;;;;;5027972;28;20608;-76
2023/08/02 01:18:44;;;;;;;2.13;0.90;;;19.00;99.90;;;;;;5029907;28;20616;-75
2023/08/02 01:21:10;;;;;;;2.37;0.90;;;19.00;99.90;;;;;;5029988;28;20669;-75
2023/08/02 01:23:36;;;;;;;2.37;0.77;;;19.00;99.90;;;;;;5029554;28;20217;-77
2023/08/02 01:26:04;;;;;;;3.53;0.80;;;19.00;99.90;;;;;;5028985;28;20177;-77
2023/08/02 01:28:36;;;;;;;2.90;0.97;;;19.00;99.90;;;;;;5029862;28;20585;-77
2023/08/02 01:31:03;;;;;;;5.20;0.90;;;19.00;99.90;;;;;;5033699;28;20608;-76
2023/08/02 01:33:35;;;;;;;4.53;1.00;;;19.00;99.90;;;;;;5030126;28;21002;-77
2023/08/02 01:36:01;;;;;;;3.20;1.00;;;19.00;99.90;;;;;;5029516;28;20585;-76
2023/08/02 01:38:27;;;;;;;2.77;0.90;;;19.10;99.90;;;;;;5046699;28;20591;-77
2023/08/02 01:40:53;;;;;;;1.93;0.80;;;19.10;99.90;;;;;;5030495;28;20657;-77
2023/08/02 01:43:19;;;;;;;4.67;0.70;;;19.10;99.90;;;;;;5029580;28;20202;-77
2023/08/02 01:45:44;;;;;;;3.20;0.93;;;19.10;99.90;;;;;;5029426;28;20828;-77
2023/08/02 01:48:10;;;;;;;3.37;1.23;;;19.20;99.90;;;;;;5046776;28;20178;-76
2023/08/02 01:50:37;;;;;;;1.90;0.90;;;19.20;99.90;;;;;;5013098;28;20182;-76
2023/08/02 01:53:03;;;;;;;1.90;0.80;;;19.20;99.90;;;;;;5029246;28;20678;-76
2023/08/02 01:55:29;;;;;;;4.27;1.33;;;19.20;99.90;;;;;;5030320;28;20584;-76
2023/08/02 01:57:56;;;;;;;1.93;1.00;;;19.20;99.90;;;;;;5029894;28;20198;-76
2023/08/02 02:00:22;;;;;;;4.43;1.37;;;19.20;99.90;;;;;;5029514;28;20621;-77
2023/08/02 02:02:49;;;;;;;3.13;1.20;;;19.20;99.90;;;;;;5029274;28;20611;-76
2023/08/02 02:05:14;;;;;;;3.10;1.00;;;19.20;99.90;;;;;;5029554;28;20219;-76
2023/08/02 02:07:40;;;;;;;2.30;1.07;;;19.20;99.90;;;;;;5031214;28;20584;-76
2023/08/02 02:10:06;;;;;;;3.03;1.00;;;19.20;99.90;;;;;;5028354;28;20188;-76
2023/08/02 02:12:32;;;;;;;2.40;1.07;;;19.20;99.90;;;;;;5028677;28;20202;-76
2023/08/02 02:14:58;;;;;;;3.80;1.30;;;19.20;99.90;;;;;;5028975;28;20639;-76
2023/08/02 02:17:23;;;;;;;3.10;1.00;;;19.20;99.90;;;;;;5029756;28;20186;-76
2023/08/02 02:19:49;;;;;;;2.00;1.03;;;19.20;99.90;;;;;;5028909;28;20169;-76
2023/08/02 02:22:15;;;;;;;3.33;1.20;;;19.20;99.90;;;;;;5029504;28;20268;-76
2023/08/02 02:24:40;;;;;;;1.93;0.90;;;19.20;99.90;;;;;;5028561;28;20190;-76
2023/08/02 02:27:06;;;;;;;2.20;0.90;;;19.30;99.90;;;;;;5045771;28;20582;-76
2023/08/02 02:29:32;;;;;;;2.23;0.90;;;19.30;99.90;;;;;;5029187;28;20169;-76
2023/08/02 02:31:57;;;;;;;2.13;0.80;;;19.30;99.90;;;;;;5028681;28;20170;-76
2023/08/02 02:34:24;;;;;;;5.03;1.40;;;19.30;99.90;;;;;;4995872;28;20197;-76
2023/08/02 02:36:50;;;;;;;1.80;1.00;;;19.30;99.90;;;;;;5012387;28;20936;-76
2023/08/02 02:39:17;;;;;;;1.50;0.80;;;19.30;99.90;;;;;;5028717;28;20209;-76
2023/08/02 02:41:43;;;;;;;2.63;0.80;;;19.30;99.90;;;;;;4995479;28;20627;-76
2023/08/02 02:44:09;;;;;;;1.90;0.93;;;19.20;99.90;;;;;;5032216;28;20197;-76
2023/08/02 02:46:34;;;;;;;2.90;0.90;;;19.20;99.90;;;;;;5028193;28;20177;-76
2023/08/02 02:49:00;;;;;;;2.30;0.80;;;19.10;99.90;;;;;;5028897;28;20596;-76
2023/08/02 02:51:25;;;;;;;2.20;1.17;;;19.00;99.90;;;;;;4995405;28;20554;-76
2023/08/02 02:53:51;;;;;;;3.20;0.70;;;19.00;99.90;;;;;;5025172;28;20259;-76
2023/08/02 02:56:17;;;;;;;1.83;0.80;;;18.90;99.90;;;;;;5028657;28;20186;-76
2023/08/02 02:58:44;;;;;;;2.00;0.80;;;18.80;99.90;;;;;;5028131;28;20269;-76
2023/08/02 03:01:09;;;;;;;2.00;0.80;;;18.70;99.90;;;;;;5027436;28;20735;-76
2023/08/02 03:03:35;;;;;;;1.67;0.80;;;18.70;99.90;;;;;;5028271;28;20206;-75
2023/08/02 03:06:01;;;;;;;1.57;0.80;;;18.70;99.90;;;;;;5028256;28;20199;-75
2023/08/02 03:08:27;;;;;;;4.80;0.87;;;18.70;99.90;;;;;;5028292;28;20181;-75
2023/08/02 03:10:53;;;;;;;2.17;0.87;;;18.60;99.90;;;;;;5029977;28;20921;-75
2023/08/02 03:13:18;;;;;;;1.70;0.90;;;18.60;99.90;;;;;;5029838;28;20209;-76
2023/08/02 03:15:44;;;;;;;1.97;1.37;;;18.50;99.90;;;;;;5029515;28;20684;-77
2023/08/02 03:18:10;;;;;;;3.00;0.80;;;18.50;99.90;;;;;;5029616;28;20573;-76
2023/08/02 03:20:38;;;;;;;2.47;1.00;;;18.50;99.90;;;;;;5032051;28;20594;-76
2023/08/02 03:23:04;;;;;;;2.73;0.90;;;18.40;99.90;;;;;;5029604;28;20201;-77
2023/08/02 03:25:30;;;;;;;2.73;1.00;;;18.50;99.90;;;;;;5011683;28;20577;-77
2023/08/02 03:27:56;;;;;;;3.60;1.30;;;18.40;99.90;;;;;;5029604;28;20587;-77
2023/08/02 03:30:22;;;;;;;2.40;1.00;;;18.40;99.90;;;;;;5028179;28;20181;-77
2023/08/02 03:32:48;;;;;;;3.23;0.80;;;18.40;99.90;;;;;;5029600;28;20639;-77
2023/08/02 03:35:14;;;;;;;1.70;0.80;;;18.40;99.90;;;;;;5028405;28;20173;-76
2023/08/02 03:37:40;;;;;;;1.90;0.90;;;18.30;99.90;;;;;;5030653;28;20587;-75
2023/08/02 03:40:06;;;;;;;2.30;0.80;;;18.40;99.90;;;;;;5032338;28;20227;-75
2023/08/02 03:42:31;;;;;;;3.20;1.20;;;18.40;99.90;;;;;;5031850;28;20252;-76
2023/08/02 03:44:57;;;;;;;2.57;1.10;;;18.30;99.90;;;;;;5026321;28;20679;-76
2023/08/02 03:47:23;;;;;;;2.80;0.90;;;18.30;99.90;;;;;;5033309;28;20200;-75
2023/08/02 03:49:49;;;;;;;1.57;0.77;;;18.30;99.90;;;;;;5032336;28;20228;-75
2023/08/02 03:52:14;;;;;;;3.27;1.00;;;18.30;99.90;;;;;;5031315;28;20256;-75
2023/08/02 03:54:40;;;;;;;2.57;1.40;;;18.30;99.90;;;;;;5031586;28;20193;-75
2023/08/02 03:57:07;;;;;;;2.00;0.97;;;18.20;99.90;;;;;;5031208;28;20173;-75
2023/08/02 03:59:33;;;;;;;2.70;1.10;;;18.30;99.90;;;;;;5032190;28;20725;-75
2023/08/02 04:01:58;;;;;;;3.93;1.57;;;18.20;99.90;;;;;;5033006;28;20667;-75
2023/08/02 04:04:24;;;;;;;4.63;1.10;;;18.20;99.90;;;;;;5031359;28;21209;-76
2023/08/02 04:06:50;;;;;;;2.20;0.80;;;18.20;99.90;;;;;;5031824;28;20181;-76
2023/08/02 04:09:15;;;;;;;2.00;1.30;;;18.20;99.90;;;;;;5032990;28;20261;-76
2023/08/02 04:11:41;;;;;;;2.03;1.00;;;18.20;99.90;;;;;;5032938;28;20208;-75
2023/08/02 04:14:07;;;;;;;5.30;1.57;;;18.20;99.90;;;;;;5030603;28;20209;-75
2023/08/02 04:16:32;;;;;;;3.23;1.70;;;18.20;99.90;;;;;;5032167;28;20177;-76
2023/08/02 04:18:58;;;;;;;3.20;1.20;;;18.20;99.90;;;;;;5032060;28;20911;-76
2023/08/02 04:21:24;;;;;;;2.67;1.00;;;18.20;99.90;;;;;;5030747;28;20231;-76
2023/08/02 04:23:50;;;;;;;2.87;1.10;;;18.20;99.90;;;;;;5033001;28;20240;-76
2023/08/02 04:26:16;;;;;;;3.07;1.77;;;18.20;99.90;;;;;;5014616;28;20182;-74
2023/08/02 04:28:42;;;;;;;2.30;1.20;;;18.20;99.90;;;;;;5031909;28;21132;-75
2023/08/02 04:31:08;;;;;;;3.67;1.23;;;18.10;99.90;;;;;;5031462;28;20591;-75
2023/08/02 04:33:34;;;;;;;2.93;1.27;;;18.10;99.90;;;;;;5035845;28;21219;-75
2023/08/02 04:36:00;;;;;;;1.97;1.07;;;18.20;99.90;;;;;;4996684;28;20232;-76
2023/08/02 04:38:27;;;;;;;2.03;1.20;;;18.20;99.90;;;;;;5033091;28;20185;-75
2023/08/02 04:40:53;;;;;;;2.60;1.30;;;18.20;99.90;;;;;;5032674;28;20580;-75
2023/08/02 04:43:19;;;;;;;2.77;1.20;;;18.20;99.90;;;;;;5014189;28;20793;-75
2023/08/02 04:45:44;;;;;;;2.37;1.40;;;18.30;99.90;;;;;;5030917;28;20712;-76
2023/08/02 04:48:10;;;;;;;2.90;1.40;;;18.20;99.90;;;;;;5031378;28;20188;-76
2023/08/02 04:50:36;;;;;;;3.10;1.30;;;18.20;99.90;;;;;;5014670;28;20177;-76
2023/08/02 04:53:01;;;;;;;3.50;1.50;;;18.20;99.90;;;;;;5031100;28;20236;-75
2023/08/02 04:55:27;;;;;;;3.47;1.63;;;18.10;99.90;;;;;;5032114;28;20158;-76
2023/08/02 04:57:53;;;;;;;3.13;1.83;;;18.10;99.90;;;;;;5030894;28;20645;-74
2023/08/02 05:00:19;;;;;;;3.20;1.60;;;18.00;99.90;;;;;;5029180;28;20565;-74
2023/08/02 05:02:45;;;;;;;3.23;1.50;;;18.00;99.90;;;;;;5031600;28;20194;-75
2023/08/02 05:05:11;;;;;;;3.30;1.40;;;18.00;99.90;;;;;;5031840;28;20525;-75
2023/08/02 05:07:37;;;;;;;3.00;1.20;;;18.00;99.90;;;;;;5032825;28;20668;-75
2023/08/02 05:10:04;;;;;;;3.10;1.23;;;18.00;99.90;;;;;;5032886;28;21162;-75
2023/08/02 05:12:39;;;;;;;3.27;1.20;;;18.00;99.90;;;;;;5036046;28;20646;-76
2023/08/02 05:15:06;;;;;;;2.27;1.70;;;18.00;99.90;;;;;;5029952;28;20663;-75
2023/08/02 05:17:32;;;;;;;4.20;1.53;;;18.00;99.90;;;;;;5030796;28;20584;-76
2023/08/02 05:19:58;;;;;;;2.10;1.47;;;18.00;99.90;;;;;;5029914;28;21201;-76
2023/08/02 05:22:24;;;;;;;2.73;1.73;;;18.00;99.90;;;;;;5031240;28;20179;-75
2023/08/02 05:24:51;;;;;;;2.70;1.97;;;18.10;99.90;;;;;;5031109;28;20616;-75
2023/08/02 05:27:17;;;;;;;5.10;1.43;;;18.10;99.90;;;;;;5031374;28;20683;-76
2023/08/02 05:29:42;;;;;;;2.53;1.57;;;18.20;99.90;;;;;;5029983;28;20612;-75
2023/08/02 05:32:08;;;;;;;3.93;2.00;;;18.20;99.90;;;;;;5029712;28;20624;-75
2023/08/02 05:34:34;;;;;;;3.90;1.77;;;18.20;99.90;;;;;;5029518;28;20209;-75
2023/08/02 05:36:59;;;;;;;3.93;1.90;;;18.20;99.90;;;;;;5021843;28;20208;-75
2023/08/02 05:39:25;;;;;;;3.60;2.00;;;18.20;99.90;;;;;;5030245;28;20166;-75
2023/08/02 05:41:51;;;;;;;7.13;2.30;;;18.30;99.90;;;;;;5030847;28;20249;-75
2023/08/02 05:44:16;;;;;;;3.27;1.80;;;18.20;99.90;;;;;;5029652;28;20197;-75
2023/08/02 05:46:43;;;;;;;5.53;2.53;;;18.20;99.90;;;;;;5014393;28;20272;-75
2023/08/02 05:49:09;;;;;;;3.17;2.10;;;18.20;99.90;;;;;;5034122;28;20223;-75
2023/08/02 05:51:35;;;;;;;3.90;2.10;;;18.20;99.90;;;;;;5029552;28;20581;-76
2023/08/02 05:54:00;;;;;;;3.50;2.40;;;18.20;99.90;;;;;;5030675;28;20284;-76
2023/08/02 05:56:26;;;;;;;4.90;2.37;;;18.10;99.90;;;;;;5029719;28;20166;-76
2023/08/02 05:58:52;;;;;;;3.50;2.37;;;18.10;99.90;;;;;;5030253;28;20182;-76
2023/08/02 06:01:17;;;;;;;3.30;2.40;;;18.10;99.90;;;;;;5028404;28;20173;-74
2023/08/02 06:03:43;;;;;;;2.90;2.20;;;18.10;99.90;;;;;;5028949;28;20324;-74
2023/08/02 06:06:09;;;;;;;5.40;2.60;;;18.10;99.90;;;;;;5029636;28;20174;-75
2023/08/02 06:08:36;;;;;;;6.10;2.87;;;18.10;99.90;;;;;;5030887;28;20680;-75
2023/08/02 06:11:02;;;;;;;3.50;2.20;;;18.00;99.90;;;;;;5030369;28;20177;-76
2023/08/02 06:13:29;;;;;;;5.33;2.57;;;18.00;99.90;;;;;;5029005;28;21304;-76
2023/08/02 06:15:54;;;;;;;5.43;1.93;;;17.90;99.90;;;;;;5028893;28;20583;-76
2023/08/02 06:18:20;;;;;;;3.33;2.60;;;17.90;99.90;;;;;;5030793;28;20899;-76
2023/08/02 06:20:46;;;;;;;4.53;2.73;;;17.90;99.90;;;;;;5028846;28;20749;-75
2023/08/02 06:23:11;;;;;;;3.57;2.40;;;17.90;99.90;;;;;;5029121;28;20212;-75
2023/08/02 06:25:37;;;;;;;3.77;2.43;;;17.90;99.90;;;;;;5032529;28;20181;-74
2023/08/02 06:28:03;;;;;;;3.30;2.27;;;17.90;99.90;;;;;;5029770;28;20181;-75
2023/08/02 06:30:29;;;;;;;4.10;2.47;;;17.90;99.90;;;;;;5028895;28;20189;-75
2023/08/02 06:32:55;;;;;;;4.50;2.37;;;17.90;99.90;;;;;;5012036;28;20636;-74
2023/08/02 06:35:20;;;;;;;5.77;2.57;;;17.90;99.90;;;;;;5030018;28;20181;-75
2023/08/02 06:37:46;;;;;;;4.17;2.17;;;17.90;99.90;;;;;;5030346;28;20169;-76
2023/08/02 06:40:12;;;;;;;3.73;2.07;;;17.80;99.90;;;;;;5029163;28;20197;-75
2023/08/02 06:42:38;;;;;;;3.70;2.67;;;17.80;99.90;;;;;;5028128;28;20748;-75
2023/08/02 06:45:04;;;;;;;4.40;3.07;;;17.80;99.90;;;;;;5029894;28;20572;-75
2023/08/02 06:47:29;;;;;;;4.07;2.50;;;17.70;99.90;;;;;;5028769;28;20222;-75
2023/08/02 06:49:55;;;;;;;3.60;2.40;;;17.70;99.90;;;;;;5031029;28;20556;-75
2023/08/02 06:52:21;;;;;;;5.60;2.40;;;17.80;99.90;;;;;;5029712;28;20297;-75
2023/08/02 06:54:50;;;;;;;3.73;2.50;;;17.80;99.90;;;;;;5029381;28;20656;-75
2023/08/02 06:57:16;;;;;;;3.17;2.23;;;17.80;99.90;;;;;;5031842;28;20204;-74
2023/08/02 06:59:42;;;;;;;2.97;2.30;;;17.80;99.90;;;;;;5044913;28;20984;-74
2023/08/02 07:02:08;;;;;;;3.47;2.00;;;17.80;99.90;;;;;;5031224;28;20168;-74
2023/08/02 07:04:36;;;;;;;4.77;1.90;;;17.80;99.90;;;;;;5029221;28;20224;-75
2023/08/02 07:07:05;;;;;;;5.23;2.40;;;17.90;99.90;;;;;;5028808;28;20178;-75
2023/08/02 07:09:32;;;;;;;4.10;2.20;;;17.90;99.90;;;;;;5027740;28;20591;-74
2023/08/02 07:11:59;;;;;;;3.80;2.30;;;17.90;99.90;;;;;;5011295;28;20602;-75
2023/08/02 07:14:25;;;;;;;3.93;2.37;;;17.90;99.90;;;;;;5029118;28;21039;-75
2023/08/02 07:16:50;;;;;;;4.77;2.63;;;18.00;99.90;;;;;;5028371;28;20593;-74
2023/08/02 07:19:16;;;;;;;3.30;1.63;;;18.00;99.90;;;;;;5029935;28;20181;-74
2023/08/02 07:21:42;;;;;;;2.10;1.57;;;18.10;99.90;;;;;;5028042;28;20169;-74
2023/08/02 07:24:08;;;;;;;4.37;2.50;;;18.20;99.90;;;;;;5029270;28;20312;-74
2023/08/02 07:26:34;;;;;;;4.00;2.47;;;18.30;99.90;;;;;;5027734;28;20185;-74
2023/08/02 07:28:59;;;;;;;3.53;2.10;;;18.40;99.90;;;;;;5028284;28;20596;-74
2023/08/02 07:31:25;;;;;;;4.57;2.70;;;18.40;99.90;;;;;;5029076;28;20588;-74
2023/08/02 07:33:51;;;;;;;2.60;2.30;;;18.50;99.90;;;;;;5028712;28;20205;-74
2023/08/02 07:36:19;;;;;;;4.20;2.93;;;18.50;99.90;;;;;;5028093;28;20185;-74
2023/08/02 07:38:46;;;;;;;2.70;2.50;;;18.60;99.90;;;;;;5031847;28;20260;-74
2023/08/02 07:41:12;;;;;;;3.70;3.00;;;18.70;99.90;;;;;;4996185;28;20576;-75
2023/08/02 07:43:38;;;;;;;4.30;2.73;;;18.90;99.90;;;;;;5028110;28;20627;-75
2023/08/02 07:46:04;;;;;;;4.90;2.80;;;19.10;99.90;;;;;;5027867;28;21139;-75
2023/08/02 07:48:30;;;;;;;2.90;2.43;;;19.60;99.90;;;;;;5027822;28;20666;-74
2023/08/02 07:50:56;;;;;;;4.50;2.60;;;19.90;99.90;;;;;;5028497;28;20216;-74
2023/08/02 07:53:21;;;;;;;3.40;2.57;;;20.10;99.90;;;;;;5027990;28;20703;-73
2023/08/02 07:55:48;;;;;;;7.60;3.10;;;20.20;99.90;;;;;;5029393;28;20169;-75
2023/08/02 07:58:16;;;;;;;4.30;2.43;;;20.20;99.90;;;;;;5028375;28;20176;-75
2023/08/02 08:00:42;;;;;;;3.27;2.10;;;20.30;99.90;;;;;;5029414;28;20572;-75
2023/08/02 08:03:07;;;;;;;2.73;2.17;;;20.30;99.90;;;;;;5028287;28;21171;-75
2023/08/02 08:05:33;;;;;;;3.90;2.40;;;20.40;99.90;;;;;;5026960;28;20671;-76
2023/08/02 08:07:59;;;;;;;2.40;2.00;;;20.70;99.90;;;;;;5028851;28;20636;-73
2023/08/02 08:10:25;;;;;;;2.60;2.10;;;20.90;99.90;;;;;;5027445;28;20612;-74
2023/08/02 08:12:51;;;;;;;5.40;2.50;;;21.20;99.90;;;;;;5028016;28;20212;-75
2023/08/02 08:15:17;;;;;;;5.97;2.50;;;21.40;99.90;;;;;;5031544;28;20576;-74
2023/08/02 08:17:42;;;;;;;6.53;3.20;;;21.70;99.90;;;;;;5028565;28;20170;-74
2023/08/02 08:20:09;;;;;;;3.33;1.70;;;21.80;99.90;;;;;;5029196;28;20259;-72
2023/08/02 08:22:34;;;;;;;3.10;1.60;;;21.90;99.90;;;;;;5029248;28;20184;-75
2023/08/02 08:25:00;;;;;;;3.23;1.90;;;21.80;99.90;;;;;;5032120;28;20572;-75
2023/08/02 08:27:26;;;;;;;4.43;1.77;;;21.70;99.90;;;;;;5032689;28;20206;-75
2023/08/02 08:29:52;;;;;;;2.23;1.73;;;21.60;99.90;;;;;;5031567;28;20694;-75
2023/08/02 08:32:18;;;;;;;2.83;1.50;;;21.50;99.90;;;;;;5030547;28;20205;-75
2023/08/02 08:34:44;;;;;;;3.70;1.47;;;21.30;99.90;;;;;;5031188;28;20213;-75
2023/08/02 08:37:09;;;;;;;2.53;1.90;;;21.30;99.90;;;;;;5030453;28;20277;-76
2023/08/02 08:39:37;;;;;;;1.90;1.20;;;21.20;99.90;;;;;;5031575;28;20233;-75
2023/08/02 08:42:07;;;;;;;1.70;1.17;;;21.20;99.90;;;;;;5030662;28;20182;-75
2023/08/02 08:44:37;;;;;;;2.10;1.30;;;21.10;99.90;;;;;;5032353;28;21007;-75
2023/08/02 08:47:05;;;;;;;2.43;1.30;;;21.00;99.90;;;;;;5031311;28;21340;-74
2023/08/02 08:49:31;;;;;;;1.83;1.10;;;21.00;99.90;;;;;;5031105;28;20670;-74
2023/08/02 08:52:01;;;;;;;3.20;1.57;;;21.00;99.90;;;;;;5036038;28;20595;-76
2023/08/02 08:54:28;;;;;;;2.93;1.30;;;20.90;99.90;;;;;;5024429;28;20704;-76
2023/08/02 08:56:55;;;;;;;2.47;1.00;;;20.90;99.90;;;;;;5044179;28;20578;-76
2023/08/02 08:59:22;;;;;;;2.40;1.17;;;20.80;99.90;;;;;;5042509;28;21018;-76
2023/08/02 09:01:49;;;;;;;2.00;1.20;;;20.70;99.90;;;;;;5031043;28;20639;-74
2023/08/02 09:04:15;;;;;;;2.73;1.13;;;20.70;99.90;;;;;;5026612;28;20622;-75
2023/08/02 09:06:40;;;;;;;2.90;1.20;;;20.60;99.90;;;;;;5011071;28;20596;-75
2023/08/02 09:09:06;;;;;;;1.83;1.10;;;20.50;99.90;;;;;;5010525;28;20581;-75
2023/08/02 09:11:34;;;;;;;2.03;1.20;;;20.40;99.90;;;;;;5010641;28;20629;-75
2023/08/02 09:14:13;;;;;;;4.03;1.70;;;20.30;99.90;;;;;;4994433;28;20206;-76
2023/08/02 09:16:56;;;;;;;2.27;1.23;;;20.10;99.90;;;;;;5039814;28;21175;-74
2023/08/02 09:19:30;;;;;;;2.50;1.27;;;19.90;99.90;;;;;;5030633;28;21759;-74
2023/08/02 09:22:16;;;;;;;5.43;1.30;;;19.90;99.90;;;;;;5023423;28;20939;-75
2023/08/02 09:24:44;;;;;;;1.93;1.30;;;19.80;99.90;;;;;;5036059;28;20620;-74
2023/08/02 09:27:18;;;;;;;1.90;1.13;;;19.70;99.90;;;;;;5029762;28;20568;-74
2023/08/02 09:29:49;;;;;;;2.97;1.07;;;19.70;99.90;;;;;;5019125;28;20719;-74
2023/08/02 09:32:20;;;;;;;3.20;1.20;;;19.70;99.90;;;;;;5010886;28;20577;-73
2023/08/02 09:34:47;;;;;;;1.90;0.90;;;19.70;99.90;;;;;;5030433;28;20577;-74
2023/08/02 09:37:15;;;;;;;2.00;1.00;;;19.80;99.90;;;;;;5025209;28;20597;-74
2023/08/02 09:39:51;;;;;;;1.80;1.00;;;19.80;99.90;;;;;;4993873;28;21164;-74
2023/08/02 09:42:21;;;;;;;2.23;1.10;;;19.80;99.90;;;;;;5025921;28;20604;-74
2023/08/02 09:44:52;;;;;;;2.17;0.80;;;19.90;99.90;;;;;;4992931;28;21167;-74
2023/08/02 09:47:18;;;;;;;1.40;0.70;;;19.90;99.90;;;;;;5011055;28;20573;-75
2023/08/02 09:49:44;;;;;;;1.77;0.70;;;20.10;99.90;;;;;;5010992;28;20591;-75
2023/08/02 09:52:10;;;;;;;2.00;0.70;;;20.20;99.90;;;;;;5029710;28;20646;-75
2023/08/02 09:54:36;;;;;;;1.77;0.80;;;20.40;99.90;;;;;;5028865;28;20644;-74
2023/08/02 09:57:02;;;;;;;1.30;0.60;;;20.50;99.90;;;;;;5021366;28;20196;-75
2023/08/02 09:59:29;;;;;;;1.40;0.70;;;20.60;99.90;;;;;;5045967;28;20536;-72
2023/08/02 10:01:56;;;;;;;2.27;0.80;;;20.80;99.90;;;;;;5031101;28;20626;-75
2023/08/02 10:04:25;;;;;;;2.00;1.10;;;20.80;99.90;;;;;;5029096;28;20624;-75
2023/08/02 10:07:02;;;;;;;1.30;0.60;;;20.90;99.90;;;;;;5031733;28;20596;-75
2023/08/02 10:09:33;;;;;;;1.40;0.70;;;20.90;99.90;;;;;;5029603;28;20573;-75
2023/08/02 10:12:08;;;;;;;2.37;1.23;;;20.90;99.90;;;;;;5028643;28;20608;-75
2023/08/02 10:14:35;;;;;;;1.30;0.70;;;21.00;99.90;;;;;;5030084;28;20615;-75
2023/08/02 10:17:02;;;;;;;1.30;0.60;;;21.00;99.90;;;;;;5029293;28;20985;-75
2023/08/02 10:19:29;;;;;;;1.50;0.60;;;21.00;99.90;;;;;;5030274;28;20727;-75
2023/08/02 10:21:59;;;;;;;1.50;0.70;;;21.10;99.90;;;;;;5028584;28;20687;-75
2023/08/02 10:24:27;;;;;;;1.40;0.70;;;21.20;99.90;;;;;;5028609;28;20624;-75
2023/08/02 10:27:13;;;;;;;1.40;0.60;;;21.40;99.90;;;;;;5030467;28;20675;-75
2023/08/02 10:29:40;;;;;;;1.70;0.60;;;21.60;99.90;;;;;;5028743;28;20588;-75
2023/08/02 10:32:17;;;;;;;1.27;0.60;;;21.80;99.90;;;;;;5029490;28;20603;-75
2023/08/02 10:34:45;;;;;;;1.30;0.50;;;22.10;99.90;;;;;;5029139;28;21168;-75
2023/08/02 10:37:10;;;;;;;1.27;0.60;;;22.30;99.90;;;;;;4996243;28;20572;-75
2023/08/02 10:39:45;;;;;;;3.77;0.70;;;22.40;99.90;;;;;;5028704;28;20929;-76
2023/08/02 10:42:16;;;;;;;1.30;0.50;;;22.50;99.90;;;;;;5034431;28;20172;-75
2023/08/02 10:44:57;;;;;;;2.17;0.53;;;22.60;99.90;;;;;;5029859;28;20605;-75
2023/08/02 10:47:26;;;;;;;1.40;0.50;;;22.60;99.90;;;;;;5030441;28;20746;-75
2023/08/02 10:49:53;;;;;;;1.30;0.60;;;22.60;99.90;;;;;;5028468;28;20607;-75
2023/08/02 10:52:38;;;;;;;1.30;0.60;;;22.70;99.90;;;;;;5028184;28;20679;-75
2023/08/02 10:55:10;;;;;;;1.83;0.60;;;22.70;99.90;;;;;;5029473;28;20575;-75
2023/08/02 10:57:37;;;;;;;1.33;0.50;;;22.70;99.90;;;;;;5030415;28;20674;-74
2023/08/02 11:00:14;;;;;;;1.40;0.47;;;22.60;99.90;;;;;;5028288;28;21097;-74
2023/08/02 11:02:45;;;;;;;1.50;0.60;;;22.50;99.90;;;;;;5028078;28;20689;-74
2023/08/02 11:05:11;;;;;;;1.60;0.70;;;22.40;99.90;;;;;;5029309;28;20592;-75
2023/08/02 11:07:37;;;;;;;1.93;0.60;;;22.40;99.90;;;;;;5028956;28;20612;-75
2023/08/02 11:10:05;;;;;;;2.50;0.60;;;22.40;99.90;;;;;;5029848;28;20184;-75
2023/08/02 11:12:32;;;;;;;1.30;0.60;;;22.50;99.90;;;;;;5028104;28;20292;-75
2023/08/02 11:14:57;;;;;;;1.53;0.60;;;22.70;99.90;;;;;;5028452;28;20581;-74
2023/08/02 11:17:23;;;;;;;1.67;0.60;;;22.90;99.90;;;;;;5027874;28;20999;-75
2023/08/02 11:19:52;;;;;;;1.20;0.50;;;23.10;99.90;;;;;;5032149;28;20173;-75
2023/08/02 11:22:19;;;;;;;1.30;0.60;;;23.20;99.90;;;;;;5028218;28;20592;-76
2023/08/02 11:24:50;;;;;;;1.40;0.50;;;23.20;99.90;;;;;;5027616;28;21171;-74
2023/08/02 11:27:24;;;;;;;1.63;0.60;;;23.20;99.90;;;;;;5027871;28;20596;-74
2023/08/02 11:30:19;;;;;;;1.40;0.47;;;23.20;99.90;;;;;;5028104;28;20687;-73
2023/08/02 11:32:46;;;;;;;1.50;0.50;;;23.20;99.90;;;;;;4994905;28;20763;-74
2023/08/02 11:35:19;;;;;;;1.30;0.50;;;23.30;99.90;;;;;;5028943;28;20707;-73
2023/08/02 11:37:45;;;;;;;1.40;0.60;;;23.40;99.90;;;;;;5028252;28;20675;-74
2023/08/02 11:40:12;;;;;;;1.60;0.70;;;23.50;99.90;;;;;;5026739;28;20568;-74
2023/08/02 11:42:50;;;;;;;1.40;0.60;;;23.60;99.90;;;;;;5029625;28;20588;-74
2023/08/02 11:45:34;;;;;;;2.00;0.70;;;23.80;99.90;;;;;;5027381;28;20622;-74
2023/08/02 11:48:00;;;;;;;1.30;0.50;;;24.00;99.90;;;;;;5029118;28;20584;-73
2023/08/02 11:50:28;;;;;;;2.13;0.53;;;24.20;99.90;;;;;;5027521;28;20584;-75
2023/08/02 11:53:08;;;;;;;1.60;0.60;;;24.30;99.90;;;;;;5028174;28;20644;-74
2023/08/02 11:55:35;;;;;;;1.50;0.63;;;24.30;99.90;;;;;;5011276;28;20576;-75
2023/08/02 11:58:03;;;;;;;1.53;0.60;;;24.30;99.90;;;;;;5028060;28;20596;-75
2023/08/02 12:00:32;;;;;;;1.50;0.70;;;24.40;99.90;;;;;;5031044;28;20587;-75
2023/08/02 12:03:13;;;;;;;1.50;0.60;;;24.50;99.90;;;;;;5032081;28;20627;-74
2023/08/02 12:05:40;;;;;;;2.13;0.70;;;24.60;99.90;;;;;;5038624;28;20603;-75
2023/08/02 12:08:13;;;;;;;2.37;0.70;;;24.70;99.90;;;;;;5031970;28;20994;-75
2023/08/02 12:10:42;;;;;;;1.80;0.90;;;24.90;99.90;;;;;;5030486;28;20588;-75
2023/08/02 12:13:16;;;;;;;2.40;0.77;;;25.10;99.90;;;;;;5022938;28;20649;-75
2023/08/02 12:16:02;;;;;;;1.30;0.50;;;25.40;99.90;;;;;;5045101;28;20589;-75
2023/08/02 12:18:28;;;;;;;1.20;0.50;;;25.70;99.90;;;;;;5044816;28;20684;-76
2023/08/02 12:20:53;;;;;;;1.30;0.40;;;26.00;99.90;;;;;;5018650;28;21072;-76
2023/08/02 12:23:35;;;;;;;1.30;0.40;;;26.10;99.90;;;;;;5032372;28;20660;-76
2023/08/02 12:26:01;;;;;;;1.97;0.40;;;26.30;99.90;;;;;;5048200;28;20191;-74
2023/08/02 12:28:47;;;;;;;2.53;0.50;;;26.60;99.90;;;;;;5032735;28;20587;-75
2023/08/02 12:31:13;;;;;;;1.97;0.40;;;26.80;99.90;;;;;;5047582;28;20570;-75
2023/08/02 12:33:39;;;;;;;1.80;0.50;;;26.90;99.90;;;;;;5032309;28;20692;-75
2023/08/02 12:36:05;;;;;;;1.30;0.57;;;27.00;99.90;;;;;;5031885;28;20577;-74
2023/08/02 12:38:31;;;;;;;1.20;0.40;;;27.20;99.90;;;;;;5032747;28;20188;-74
2023/08/02 12:40:57;;;;;;;1.40;0.50;;;27.30;99.90;;;;;;5014602;28;20534;-75
2023/08/02 12:43:23;;;;;;;1.20;0.50;;;27.50;99.90;;;;;;5031266;28;20615;-77
2023/08/02 12:45:50;;;;;;;1.70;0.40;;;27.70;99.90;;;;;;5031120;28;20628;-77
2023/08/02 12:48:15;;;;;;;1.30;0.50;;;28.00;99.90;;;;;;5033275;28;20583;-77